sensor_id;sensor_type;location;lat;lon;timestamp;pressure;altitude;pressure_sealevel;temperature;humidity
71567;BME280;59403;47.456;19.120;2023-08-31T00:02:22;99563.81;;;16.30;100.00
71567;BME280;59403;47.456;19.120;2023-08-31T00:04:51;99567.94;;;16.26;100.00
71567;BME280;59403;47.456;19.120;2023-08-31T00:07:21;99569.41;;;16.22;100.00
71567;BME280;59403;47.456;19.120;2023-08-31T00:09:48;99561.22;;;16.17;100.00
71567;BME280;59403;47.456;19.120;2023-08-31T00:12:15;99563.66;;;16.19;100.00
71567;BME280;59403;47.456;19.120;2023-08-31T00:14:42;99562.84;;;16.18;100.00
71567;BME280;59403;47.456;19.120;2023-08-31T00:17:09;99561.63;;;16.14;100.00
71567;BME280;59403;47.456;19.120;2023-08-31T00:19:35;99560.81;;;16.14;100.00
71567;BME280;59403;47.456;19.120;2023-08-31T00:22:02;99553.41;;;16.09;100.00
71567;BME280;59403;47.456;19.120;2023-08-31T00:24:31;99557.31;;;16.13;100.00
71567;BME280;59403;47.456;19.120;2023-08-31T00:26:58;99561.66;;;16.08;100.00
71567;BME280;59403;47.456;19.120;2023-08-31T00:29:25;99567.37;;;16.11;100.00
71567;BME280;59403;47.456;19.120;2023-08-31T00:31:53;99571.91;;;16.17;100.00
71567;BME280;59403;47.456;19.120;2023-08-31T00:34:20;99572.06;;;16.22;100.00
71567;BME280;59403;47.456;19.120;2023-08-31T00:36:47;99568.13;;;16.25;100.00
71567;BME280;59403;47.456;19.120;2023-08-31T00:39:15;99560.13;;;16.25;100.00
71567;BME280;59403;47.456;19.120;2023-08-31T00:41:47;99560.50;;;16.28;100.00
71567;BME280;59403;47.456;19.120;2023-08-31T00:44:15;99566.47;;;16.30;100.00
71567;BME280;59403;47.456;19.120;2023-08-31T00:46:42;99567.91;;;16.33;100.00
71567;BME280;59403;47.456;19.120;2023-08-31T00:49:09;99566.47;;;16.30;100.00
71567;BME280;59403;47.456;19.120;2023-08-31T00:51:37;99565.41;;;16.38;100.00
71567;BME280;59403;47.456;19.120;2023-08-31T00:54:04;99564.75;;;16.42;100.00
71567;BME280;59403;47.456;19.120;2023-08-31T00:56:31;99564.34;;;16.45;100.00
71567;BME280;59403;47.456;19.120;2023-08-31T00:58:59;99565.81;;;16.41;100.00
71567;BME280;59403;47.456;19.120;2023-08-31T01:04:28;99564.53;;;16.44;100.00
71567;BME280;59403;47.456;19.120;2023-08-31T01:07:07;99564.97;;;16.41;100.00
71567;BME280;59403;47.456;19.120;2023-08-31T01:09:43;99567.88;;;16.39;100.00
71567;BME280;59403;47.456;19.120;2023-08-31T01:12:15;99586.12;;;16.42;100.00
71567;BME280;59403;47.456;19.120;2023-08-31T01:14:50;99585.97;;;16.37;100.00
71567;BME280;59403;47.456;19.120;2023-08-31T01:17:22;99584.94;;;16.38;100.00
71567;BME280;59403;47.456;19.120;2023-08-31T01:19:52;99585.78;;;16.32;100.00
71567;BME280;59403;47.456;19.120;2023-08-31T01:22:27;99587.84;;;16.30;100.00
71567;BME280;59403;47.456;19.120;2023-08-31T01:24:58;99593.62;;;16.27;100.00
71567;BME280;59403;47.456;19.120;2023-08-31T01:27:29;99594.47;;;16.28;100.00
71567;BME280;59403;47.456;19.120;2023-08-31T01:29:57;99586.84;;;16.25;100.00
71567;BME280;59403;47.456;19.120;2023-08-31T01:32:24;99590.13;;;16.27;100.00
71567;BME280;59403;47.456;19.120;2023-08-31T01:34:51;99592.41;;;16.23;100.00
71567;BME280;59403;47.456;19.120;2023-08-31T01:37:26;99593.44;;;16.22;100.00
71567;BME280;59403;47.456;19.120;2023-08-31T01:39:58;99597.56;;;16.18;100.00
71567;BME280;59403;47.456;19.120;2023-08-31T01:42:30;99592.44;;;16.17;100.00
71567;BME280;59403;47.456;19.120;2023-08-31T01:44:58;99587.31;;;16.15;100.00
71567;BME280;59403;47.456;19.120;2023-08-31T01:47:27;99589.16;;;16.15;100.00
71567;BME280;59403;47.456;19.120;2023-08-31T01:49:54;99596.16;;;16.09;100.00
71567;BME280;59403;47.456;19.120;2023-08-31T01:52:21;99586.91;;;16.12;100.00
71567;BME280;59403;47.456;19.120;2023-08-31T01:54:48;99585.06;;;16.06;100.00
71567;BME280;59403;47.456;19.120;2023-08-31T01:57:16;99590.63;;;16.04;100.00
71567;BME280;59403;47.456;19.120;2023-08-31T01:59:43;99594.12;;;16.05;100.00
71567;BME280;59403;47.456;19.120;2023-08-31T02:02:10;99590.63;;;16.04;100.00
71567;BME280;59403;47.456;19.120;2023-08-31T02:04:37;99589.84;;;16.04;100.00
71567;BME280;59403;47.456;19.120;2023-08-31T02:07:04;99591.28;;;16.00;100.00
71567;BME280;59403;47.456;19.120;2023-08-31T02:09:31;99588.63;;;16.00;100.00
71567;BME280;59403;47.456;19.120;2023-08-31T02:11:57;99594.56;;;16.02;100.00
71567;BME280;59403;47.456;19.120;2023-08-31T02:14:26;99592.69;;;16.02;100.00
71567;BME280;59403;47.456;19.120;2023-08-31T02:16:53;99605.03;;;16.03;100.00
71567;BME280;59403;47.456;19.120;2023-08-31T02:19:19;99594.34;;;16.03;100.00
71567;BME280;59403;47.456;19.120;2023-08-31T02:21:47;99598.88;;;16.03;100.00
71567;BME280;59403;47.456;19.120;2023-08-31T02:24:14;99602.38;;;16.03;100.00
71567;BME280;59403;47.456;19.120;2023-08-31T02:26:41;99599.72;;;15.97;100.00
71567;BME280;59403;47.456;19.120;2023-08-31T02:29:08;99600.53;;;15.97;100.00
71567;BME280;59403;47.456;19.120;2023-08-31T02:31:36;99601.56;;;15.96;100.00
71567;BME280;59403;47.456;19.120;2023-08-31T02:34:04;99604.25;;;15.96;100.00
71567;BME280;59403;47.456;19.120;2023-08-31T02:36:30;99606.69;;;15.98;100.00
71567;BME280;59403;47.456;19.120;2023-08-31T02:38:57;99608.12;;;15.93;100.00
71567;BME280;59403;47.456;19.120;2023-08-31T02:41:24;99603.63;;;15.94;100.00
71567;BME280;59403;47.456;19.120;2023-08-31T02:43:51;99605.25;;;15.95;100.00
71567;BME280;59403;47.456;19.120;2023-08-31T02:46:18;99611.03;;;15.92;100.00
71567;BME280;59403;47.456;19.120;2023-08-31T02:48:47;99609.41;;;15.91;100.00
71567;BME280;59403;47.456;19.120;2023-08-31T02:51:14;99617.63;;;15.89;100.00
71567;BME280;59403;47.456;19.120;2023-08-31T02:53:40;99620.69;;;15.86;100.00
71567;BME280;59403;47.456;19.120;2023-08-31T02:56:07;99620.09;;;15.84;100.00
71567;BME280;59403;47.456;19.120;2023-08-31T02:58:34;99617.81;;;15.81;100.00
71567;BME280;59403;47.456;19.120;2023-08-31T03:01:08;99618.66;;;15.82;100.00
71567;BME280;59403;47.456;19.120;2023-08-31T03:03:36;99620.09;;;15.84;100.00
71567;BME280;59403;47.456;19.120;2023-08-31T03:06:05;99607.53;;;15.85;100.00
71567;BME280;59403;47.456;19.120;2023-08-31T03:08:32;99607.94;;;15.88;100.00
71567;BME280;59403;47.456;19.120;2023-08-31T03:10:59;99612.28;;;15.89;100.00
71567;BME280;59403;47.456;19.120;2023-08-31T03:13:26;99604.44;;;15.88;100.00
71567;BME280;59403;47.456;19.120;2023-08-31T03:15:53;99603.88;;;15.86;100.00
71567;BME280;59403;47.456;19.120;2023-08-31T03:18:21;99606.75;;;15.84;100.00
71567;BME280;59403;47.456;19.120;2023-08-31T03:20:48;99598.91;;;15.83;100.00
71567;BME280;59403;47.456;19.120;2023-08-31T03:23:17;99609.19;;;15.79;100.00
71567;BME280;59403;47.456;19.120;2023-08-31T03:25:43;99615.19;;;15.75;100.00
71567;BME280;59403;47.456;19.120;2023-08-31T03:28:10;99613.56;;;15.74;100.00
71567;BME280;59403;47.456;19.120;2023-08-31T03:30:37;99621.56;;;15.74;100.00
71567;BME280;59403;47.456;19.120;2023-08-31T03:33:04;99621.34;;;15.69;100.00
71567;BME280;59403;47.456;19.120;2023-08-31T03:35:31;99622.81;;;15.65;100.00
71567;BME280;59403;47.456;19.120;2023-08-31T03:37:58;99618.06;;;15.60;100.00
71567;BME280;59403;47.456;19.120;2023-08-31T03:40:27;99624.03;;;15.62;100.00
71567;BME280;59403;47.456;19.120;2023-08-31T03:42:54;99628.16;;;15.65;100.00
71567;BME280;59403;47.456;19.120;2023-08-31T03:45:21;99624.25;;;15.61;100.00
71567;BME280;59403;47.456;19.120;2023-08-31T03:47:50;99631.25;;;15.62;100.00
71567;BME280;59403;47.456;19.120;2023-08-31T03:50:17;99635.31;;;15.64;100.00
71567;BME280;59403;47.456;19.120;2023-08-31T03:52:43;99624.03;;;15.62;100.00
71567;BME280;59403;47.456;19.120;2023-08-31T03:55:10;99637.16;;;15.64;100.00
71567;BME280;59403;47.456;19.120;2023-08-31T03:57:38;99639.62;;;15.59;100.00
71567;BME280;59403;47.456;19.120;2023-08-31T04:00:06;99638.00;;;15.58;100.00
71567;BME280;59403;47.456;19.120;2023-08-31T04:02:34;99635.34;;;15.58;100.00
71567;BME280;59403;47.456;19.120;2023-08-31T04:05:01;99641.69;;;15.57;100.00
71567;BME280;59403;47.456;19.120;2023-08-31T04:07:30;99639.44;;;15.54;100.00
71567;BME280;59403;47.456;19.120;2023-08-31T04:09:57;99643.94;;;15.53;100.00
71567;BME280;59403;47.456;19.120;2023-08-31T04:12:24;99646.22;;;15.56;100.00
71567;BME280;59403;47.456;19.120;2023-08-31T04:14:52;99645.19;;;15.57;100.00
71567;BME280;59403;47.456;19.120;2023-08-31T04:17:19;99646.00;;;15.58;100.00
71567;BME280;59403;47.456;19.120;2023-08-31T04:19:45;99650.94;;;15.61;100.00
71567;BME280;59403;47.456;19.120;2023-08-31T04:22:12;99656.47;;;15.59;100.00
71567;BME280;59403;47.456;19.120;2023-08-31T04:24:39;99660.78;;;15.60;100.00
71567;BME280;59403;47.456;19.120;2023-08-31T04:27:06;99647.88;;;15.51;100.00
71567;BME280;59403;47.456;19.120;2023-08-31T04:29:34;99656.88;;;15.50;100.00
71567;BME280;59403;47.456;19.120;2023-08-31T04:32:03;99661.19;;;15.57;100.00
71567;BME280;59403;47.456;19.120;2023-08-31T04:34:30;99661.41;;;15.56;100.00
71567;BME280;59403;47.456;19.120;2023-08-31T04:36:57;99666.53;;;15.57;100.00
71567;BME280;59403;47.456;19.120;2023-08-31T04:39:24;99670.66;;;15.60;100.00
71567;BME280;59403;47.456;19.120;2023-08-31T04:41:52;99673.94;;;15.62;100.00
71567;BME280;59403;47.456;19.120;2023-08-31T04:44:19;99681.31;;;15.66;100.00
71567;BME280;59403;47.456;19.120;2023-08-31T04:46:46;99684.00;;;15.66;100.00
71567;BME280;59403;47.456;19.120;2023-08-31T04:49:14;99677.22;;;15.70;100.00
71567;BME280;59403;47.456;19.120;2023-08-31T04:51:44;99686.84;;;15.78;100.00
71567;BME280;59403;47.456;19.120;2023-08-31T04:54:11;99691.38;;;15.84;100.00
71567;BME280;59403;47.456;19.120;2023-08-31T04:56:38;99690.53;;;15.90;100.00
71567;BME280;59403;47.456;19.120;2023-08-31T04:59:05;99706.34;;;15.85;100.00
71567;BME280;59403;47.456;19.120;2023-08-31T05:01:32;99710.25;;;15.96;100.00
71567;BME280;59403;47.456;19.120;2023-08-31T05:03:59;99703.03;;;16.03;100.00
71567;BME280;59403;47.456;19.120;2023-08-31T05:06:27;99708.16;;;16.11;100.00
71567;BME280;59403;47.456;19.120;2023-08-31T05:08:54;99705.47;;;16.11;100.00
71567;BME280;59403;47.456;19.120;2023-08-31T05:11:22;99697.69;;;16.16;100.00
71567;BME280;59403;47.456;19.120;2023-08-31T05:13:49;99718.84;;;16.17;100.00
71567;BME280;59403;47.456;19.120;2023-08-31T05:16:15;99709.75;;;16.25;100.00
71567;BME280;59403;47.456;19.120;2023-08-31T05:18:42;99716.12;;;16.24;100.00
71567;BME280;59403;47.456;19.120;2023-08-31T05:21:09;99720.84;;;16.35;100.00
71567;BME280;59403;47.456;19.120;2023-08-31T05:23:38;99731.94;;;16.95;100.00
71567;BME280;59403;47.456;19.120;2023-08-31T05:26:04;99724.47;;;17.04;100.00
71567;BME280;59403;47.456;19.120;2023-08-31T05:28:31;99743.03;;;16.99;100.00
71567;BME280;59403;47.456;19.120;2023-08-31T05:31:01;99741.19;;;16.93;100.00
71567;BME280;59403;47.456;19.120;2023-08-31T05:33:28;99747.03;;;16.83;100.00
71567;BME280;59403;47.456;19.120;2023-08-31T05:36:00;99744.53;;;16.88;100.00
71567;BME280;59403;47.456;19.120;2023-08-31T05:38:29;99747.72;;;17.03;100.00
71567;BME280;59403;47.456;19.120;2023-08-31T05:41:05;99745.28;;;17.64;100.00
71567;BME280;59403;47.456;19.120;2023-08-31T05:43:33;99750.75;;;18.61;100.00
71567;BME280;59403;47.456;19.120;2023-08-31T05:46:00;99750.06;;;19.13;96.30
71567;BME280;59403;47.456;19.120;2023-08-31T05:48:27;99753.47;;;19.20;95.79
71567;BME280;59403;47.456;19.120;2023-08-31T05:50:54;99759.38;;;18.81;97.12
71567;BME280;59403;47.456;19.120;2023-08-31T05:53:21;99756.28;;;18.48;98.47
71567;BME280;59403;47.456;19.120;2023-08-31T05:55:48;99763.50;;;18.23;99.36
71567;BME280;59403;47.456;19.120;2023-08-31T05:58:16;99758.75;;;18.25;99.37
71567;BME280;59403;47.456;19.120;2023-08-31T06:00:43;99757.28;;;18.29;96.83
71567;BME280;59403;47.456;19.120;2023-08-31T06:03:10;99765.31;;;18.29;95.68
71567;BME280;59403;47.456;19.120;2023-08-31T06:05:37;99759.75;;;18.06;93.06
71567;BME280;59403;47.456;19.120;2023-08-31T06:08:05;99770.78;;;17.98;94.69
71567;BME280;59403;47.456;19.120;2023-08-31T06:10:31;99776.22;;;17.85;93.55
71567;BME280;59403;47.456;19.120;2023-08-31T06:12:58;99789.56;;;17.67;93.39
71567;BME280;59403;47.456;19.120;2023-08-31T06:15:27;99780.75;;;17.60;93.43
71567;BME280;59403;47.456;19.120;2023-08-31T06:17:57;99787.59;;;17.56;91.36
71567;BME280;59403;47.456;19.120;2023-08-31T06:20:24;99780.22;;;17.51;92.71
71567;BME280;59403;47.456;19.120;2023-08-31T06:22:50;99784.91;;;17.56;91.99
71567;BME280;59403;47.456;19.120;2023-08-31T06:25:17;99787.75;;;17.61;92.54
71567;BME280;59403;47.456;19.120;2023-08-31T06:27:45;99786.22;;;17.71;92.22
71567;BME280;59403;47.456;19.120;2023-08-31T06:30:12;99791.09;;;17.81;90.96
71567;BME280;59403;47.456;19.120;2023-08-31T06:32:43;99787.78;;;17.85;91.21
71567;BME280;59403;47.456;19.120;2023-08-31T06:35:10;99795.91;;;17.97;92.58
71567;BME280;59403;47.456;19.120;2023-08-31T06:37:38;99796.34;;;18.19;91.30
71567;BME280;59403;47.456;19.120;2023-08-31T06:40:06;99786.69;;;18.36;88.77
71567;BME280;59403;47.456;19.120;2023-08-31T06:42:34;99797.41;;;18.60;86.02
71567;BME280;59403;47.456;19.120;2023-08-31T06:45:01;99807.84;;;18.86;86.97
71567;BME280;59403;47.456;19.120;2023-08-31T06:47:28;99805.72;;;19.06;86.54
71567;BME280;59403;47.456;19.120;2023-08-31T06:49:56;99798.03;;;19.10;87.63
71567;BME280;59403;47.456;19.120;2023-08-31T06:52:24;99799.44;;;19.12;85.28
71567;BME280;59403;47.456;19.120;2023-08-31T06:54:51;99806.16;;;19.03;86.21
71567;BME280;59403;47.456;19.120;2023-08-31T06:57:20;99802.66;;;19.03;86.13
71567;BME280;59403;47.456;19.120;2023-08-31T06:59:48;99809.97;;;18.96;86.01
71567;BME280;59403;47.456;19.120;2023-08-31T07:02:15;99818.63;;;18.98;85.48
71567;BME280;59403;47.456;19.120;2023-08-31T07:04:42;99813.03;;;18.99;85.97
71567;BME280;59403;47.456;19.120;2023-08-31T07:07:11;99821.25;;;18.86;85.29
71567;BME280;59403;47.456;19.120;2023-08-31T07:09:39;99826.37;;;18.88;86.70
71567;BME280;59403;47.456;19.120;2023-08-31T07:12:06;99827.34;;;18.93;86.43
71567;BME280;59403;47.456;19.120;2023-08-31T07:14:33;99830.84;;;18.94;86.13
71567;BME280;59403;47.456;19.120;2023-08-31T07:17:00;99826.53;;;18.93;85.84
71567;BME280;59403;47.456;19.120;2023-08-31T07:19:27;99825.03;;;18.97;85.12
71567;BME280;59403;47.456;19.120;2023-08-31T07:21:54;99837.62;;;18.96;85.82
71567;BME280;59403;47.456;19.120;2023-08-31T07:24:23;99837.78;;;19.01;85.24
71567;BME280;59403;47.456;19.120;2023-08-31T07:26:51;99837.47;;;19.09;84.72
71567;BME280;59403;47.456;19.120;2023-08-31T07:29:18;99834.72;;;19.16;85.48
71567;BME280;59403;47.456;19.120;2023-08-31T07:31:44;99836.41;;;19.29;85.17
71567;BME280;59403;47.456;19.120;2023-08-31T07:34:11;99830.38;;;19.15;84.38
71567;BME280;59403;47.456;19.120;2023-08-31T07:36:40;99844.62;;;19.15;84.66
71567;BME280;59403;47.456;19.120;2023-08-31T07:39:07;99847.81;;;19.24;84.06
71567;BME280;59403;47.456;19.120;2023-08-31T07:41:36;99839.06;;;19.47;84.27
71567;BME280;59403;47.456;19.120;2023-08-31T07:44:05;99847.50;;;19.80;84.01
71567;BME280;59403;47.456;19.120;2023-08-31T07:46:32;99843.78;;;19.92;83.13
71567;BME280;59403;47.456;19.120;2023-08-31T07:48:59;99851.19;;;20.08;81.87
71567;BME280;59403;47.456;19.120;2023-08-31T07:51:26;99860.12;;;20.20;78.71
71567;BME280;59403;47.456;19.120;2023-08-31T07:53:52;99860.81;;;20.39;80.14
71567;BME280;59403;47.456;19.120;2023-08-31T07:56:19;99863.03;;;20.42;79.35
71567;BME280;59403;47.456;19.120;2023-08-31T07:58:48;99848.28;;;20.91;76.94
71567;BME280;59403;47.456;19.120;2023-08-31T08:01:15;99860.62;;;21.26;79.53
71567;BME280;59403;47.456;19.120;2023-08-31T08:03:43;99864.91;;;21.11;77.79
71567;BME280;59403;47.456;19.120;2023-08-31T08:06:10;99863.53;;;21.36;78.42
71567;BME280;59403;47.456;19.120;2023-08-31T08:08:37;99864.41;;;20.91;78.93
71567;BME280;59403;47.456;19.120;2023-08-31T08:11:04;99863.03;;;20.88;78.56
71567;BME280;59403;47.456;19.120;2023-08-31T08:13:31;99864.22;;;20.69;75.92
71567;BME280;59403;47.456;19.120;2023-08-31T08:15:59;99866.28;;;20.90;77.24
71567;BME280;59403;47.456;19.120;2023-08-31T08:18:27;99872.16;;;21.10;78.70
71567;BME280;59403;47.456;19.120;2023-08-31T08:20:59;99865.69;;;21.11;75.90
71567;BME280;59403;47.456;19.120;2023-08-31T08:23:26;99872.16;;;21.10;72.43
71567;BME280;59403;47.456;19.120;2023-08-31T08:25:53;99870.47;;;21.21;73.90
71567;BME280;59403;47.456;19.120;2023-08-31T08:28:20;99875.16;;;21.25;68.90
71567;BME280;59403;47.456;19.120;2023-08-31T08:30:47;99868.34;;;21.34;71.83
71567;BME280;59403;47.456;19.120;2023-08-31T08:33:16;99874.78;;;21.33;72.20
71567;BME280;59403;47.456;19.120;2023-08-31T08:35:44;99877.53;;;21.10;70.54
71567;BME280;59403;47.456;19.120;2023-08-31T08:38:11;99873.13;;;21.32;71.10
71567;BME280;59403;47.456;19.120;2023-08-31T08:40:38;99890.81;;;21.28;71.01
71567;BME280;59403;47.456;19.120;2023-08-31T08:43:06;99890.91;;;21.45;71.08
71567;BME280;59403;47.456;19.120;2023-08-31T08:45:36;99891.16;;;21.43;70.73
71567;BME280;59403;47.456;19.120;2023-08-31T08:48:05;99892.97;;;21.26;69.15
71567;BME280;59403;47.456;19.120;2023-08-31T08:50:45;99896.69;;;21.25;71.09
71567;BME280;59403;47.456;19.120;2023-08-31T08:53:18;99901.41;;;21.18;69.72
71567;BME280;59403;47.456;19.120;2023-08-31T08:55:45;99897.22;;;21.11;69.67
71567;BME280;59403;47.456;19.120;2023-08-31T08:58:12;99901.34;;;21.41;70.08
71567;BME280;59403;47.456;19.120;2023-08-31T09:00:39;99894.44;;;21.46;69.46
71567;BME280;59403;47.456;19.120;2023-08-31T09:03:07;99900.66;;;21.34;67.99
71567;BME280;59403;47.456;19.120;2023-08-31T09:05:34;99912.16;;;21.58;68.85
71567;BME280;59403;47.456;19.120;2023-08-31T09:08:04;99906.31;;;21.61;69.77
71567;BME280;59403;47.456;19.120;2023-08-31T09:10:36;99911.84;;;21.55;72.66
71567;BME280;59403;47.456;19.120;2023-08-31T09:13:05;99906.59;;;21.48;70.71
71567;BME280;59403;47.456;19.120;2023-08-31T09:15:40;99917.13;;;21.50;68.31
71567;BME280;59403;47.456;19.120;2023-08-31T09:18:09;99915.75;;;22.03;71.28
71567;BME280;59403;47.456;19.120;2023-08-31T09:20:44;99918.34;;;21.98;65.57
71567;BME280;59403;47.456;19.120;2023-08-31T09:23:13;99925.22;;;22.34;66.35
71567;BME280;59403;47.456;19.120;2023-08-31T09:25:43;99920.19;;;22.26;66.13
71567;BME280;59403;47.456;19.120;2023-08-31T09:28:12;99921.19;;;22.36;67.14
71567;BME280;59403;47.456;19.120;2023-08-31T09:30:39;99924.75;;;21.92;66.26
71567;BME280;59403;47.456;19.120;2023-08-31T09:33:07;99923.56;;;22.33;66.56
71567;BME280;59403;47.456;19.120;2023-08-31T09:35:39;99931.03;;;22.76;66.57
71567;BME280;59403;47.456;19.120;2023-08-31T09:38:08;99930.56;;;22.62;64.31
71567;BME280;59403;47.456;19.120;2023-08-31T09:40:36;99926.91;;;22.40;62.93
71567;BME280;59403;47.456;19.120;2023-08-31T09:43:04;99929.66;;;22.57;63.43
71567;BME280;59403;47.456;19.120;2023-08-31T09:45:32;99937.72;;;22.40;63.04
71567;BME280;59403;47.456;19.120;2023-08-31T09:47:59;99926.34;;;22.71;63.77
71567;BME280;59403;47.456;19.120;2023-08-31T09:50:29;99938.00;;;22.55;62.27
71567;BME280;59403;47.456;19.120;2023-08-31T09:53:00;99932.50;;;22.67;63.24
71567;BME280;59403;47.456;19.120;2023-08-31T09:55:28;99936.62;;;22.69;63.75
71567;BME280;59403;47.456;19.120;2023-08-31T09:57:57;99938.31;;;22.75;64.44
71567;BME280;59403;47.456;19.120;2023-08-31T10:00:25;99947.78;;;22.94;61.96
71567;BME280;59403;47.456;19.120;2023-08-31T10:02:54;99945.22;;;23.42;63.44
71567;BME280;59403;47.456;19.120;2023-08-31T10:05:22;99946.47;;;23.56;63.18
71567;BME280;59403;47.456;19.120;2023-08-31T10:07:50;99940.78;;;23.31;61.65
71567;BME280;59403;47.456;19.120;2023-08-31T10:10:17;99938.41;;;23.35;60.58
71567;BME280;59403;47.456;19.120;2023-08-31T10:12:47;99943.34;;;23.43;58.15
71567;BME280;59403;47.456;19.120;2023-08-31T10:15:16;99939.13;;;23.30;56.47
71567;BME280;59403;47.456;19.120;2023-08-31T10:17:43;99945.19;;;23.21;57.62
71567;BME280;59403;47.456;19.120;2023-08-31T10:20:12;99942.94;;;22.96;59.25
71567;BME280;59403;47.456;19.120;2023-08-31T10:22:40;99954.97;;;23.05;56.44
71567;BME280;59403;47.456;19.120;2023-08-31T10:25:07;99953.91;;;23.66;57.76
71567;BME280;59403;47.456;19.120;2023-08-31T10:27:38;99959.19;;;23.99;57.45
71567;BME280;59403;47.456;19.120;2023-08-31T10:30:26;99951.38;;;23.81;59.17
71567;BME280;59403;47.456;19.120;2023-08-31T10:33:22;99958.75;;;23.64;57.53
71567;BME280;59403;47.456;19.120;2023-08-31T10:35:55;99960.63;;;23.63;55.41
71567;BME280;59403;47.456;19.120;2023-08-31T10:38:27;99958.38;;;23.17;55.45
71567;BME280;59403;47.456;19.120;2023-08-31T10:41:18;99957.28;;;22.97;56.61
71567;BME280;59403;47.456;19.120;2023-08-31T10:43:47;99968.34;;;22.62;56.65
71567;BME280;59403;47.456;19.120;2023-08-31T10:46:26;99968.69;;;22.66;59.14
71567;BME280;59403;47.456;19.120;2023-08-31T10:48:55;99971.19;;;22.56;58.92
71567;BME280;59403;47.456;19.120;2023-08-31T10:51:23;99979.94;;;22.63;59.77
71567;BME280;59403;47.456;19.120;2023-08-31T10:53:50;99985.16;;;22.52;60.85
71567;BME280;59403;47.456;19.120;2023-08-31T10:56:18;99972.78;;;22.23;59.77
71567;BME280;59403;47.456;19.120;2023-08-31T10:58:58;99977.38;;;22.39;62.82
71567;BME280;59403;47.456;19.120;2023-08-31T11:01:55;99977.53;;;22.33;61.77
71567;BME280;59403;47.456;19.120;2023-08-31T11:04:23;99981.03;;;22.33;62.46
71567;BME280;59403;47.456;19.120;2023-08-31T11:07:14;99986.94;;;22.30;63.74
71567;BME280;59403;47.456;19.120;2023-08-31T11:09:41;99991.16;;;22.10;63.62
71567;BME280;59403;47.456;19.120;2023-08-31T11:12:09;99989.06;;;22.28;63.72
71567;BME280;59403;47.456;19.120;2023-08-31T11:14:36;99997.91;;;22.40;65.86
71567;BME280;59403;47.456;19.120;2023-08-31T11:17:05;99999.06;;;22.44;63.79
71567;BME280;59403;47.456;19.120;2023-08-31T11:19:33;100000.72;;;22.17;62.41
71567;BME280;59403;47.456;19.120;2023-08-31T11:22:00;99993.03;;;22.26;63.28
71567;BME280;59403;47.456;19.120;2023-08-31T11:24:28;99997.00;;;22.35;64.49
71567;BME280;59403;47.456;19.120;2023-08-31T11:26:55;99996.81;;;22.25;64.80
71567;BME280;59403;47.456;19.120;2023-08-31T11:29:22;100005.19;;;22.12;64.06
71567;BME280;59403;47.456;19.120;2023-08-31T11:31:49;100007.78;;;22.07;66.21
71567;BME280;59403;47.456;19.120;2023-08-31T11:34:18;100003.53;;;21.94;67.21
71567;BME280;59403;47.456;19.120;2023-08-31T11:36:46;100011.13;;;22.25;67.50
71567;BME280;59403;47.456;19.120;2023-08-31T11:39:14;100002.16;;;22.36;66.11
71567;BME280;59403;47.456;19.120;2023-08-31T11:41:42;100001.72;;;22.56;64.70
71567;BME280;59403;47.456;19.120;2023-08-31T11:44:09;100002.09;;;22.48;64.59
71567;BME280;59403;47.456;19.120;2023-08-31T11:46:37;99996.38;;;22.44;64.18
71567;BME280;59403;47.456;19.120;2023-08-31T11:49:06;99999.72;;;22.51;64.54
71567;BME280;59403;47.456;19.120;2023-08-31T11:51:35;100000.63;;;22.57;65.15
71567;BME280;59403;47.456;19.120;2023-08-31T11:54:03;100002.56;;;22.45;63.95
71567;BME280;59403;47.456;19.120;2023-08-31T11:56:38;99997.94;;;22.57;64.68
71567;BME280;59403;47.456;19.120;2023-08-31T11:59:08;100005.00;;;22.75;63.22
71567;BME280;59403;47.456;19.120;2023-08-31T12:01:40;99992.81;;;23.05;61.52
71567;BME280;59403;47.456;19.120;2023-08-31T12:04:11;99990.06;;;23.22;57.76
71567;BME280;59403;47.456;19.120;2023-08-31T12:06:40;99992.03;;;23.26;59.90
71567;BME280;59403;47.456;19.120;2023-08-31T12:09:07;99997.66;;;23.25;61.91
71567;BME280;59403;47.456;19.120;2023-08-31T12:11:34;99992.19;;;23.20;60.91
71567;BME280;59403;47.456;19.120;2023-08-31T12:14:02;99993.78;;;22.99;61.48
71567;BME280;59403;47.456;19.120;2023-08-31T12:16:33;99999.56;;;23.08;60.87
71567;BME280;59403;47.456;19.120;2023-08-31T12:19:02;99999.97;;;23.16;60.30
71567;BME280;59403;47.456;19.120;2023-08-31T12:23:58;99996.88;;;23.08;60.40
71567;BME280;59403;47.456;19.120;2023-08-31T12:26:25;99992.13;;;23.31;60.68
71567;BME280;59403;47.456;19.120;2023-08-31T12:28:52;100002.63;;;23.49;57.71
71567;BME280;59403;47.456;19.120;2023-08-31T12:31:19;99991.19;;;23.42;59.33
71567;BME280;59403;47.456;19.120;2023-08-31T12:33:45;99996.97;;;23.51;61.32
71567;BME280;59403;47.456;19.120;2023-08-31T12:36:12;99994.37;;;23.39;62.67
71567;BME280;59403;47.456;19.120;2023-08-31T12:38:39;99994.41;;;23.06;61.54
71567;BME280;59403;47.456;19.120;2023-08-31T12:41:07;99997.28;;;23.33;57.89
71567;BME280;59403;47.456;19.120;2023-08-31T12:43:34;99999.88;;;23.88;57.94
71567;BME280;59403;47.456;19.120;2023-08-31T12:46:01;99995.13;;;24.21;60.12
71567;BME280;59403;47.456;19.120;2023-08-31T12:48:31;99989.38;;;24.13;55.74
71567;BME280;59403;47.456;19.120;2023-08-31T12:50:57;99999.91;;;24.36;56.57
71567;BME280;59403;47.456;19.120;2023-08-31T12:53:24;100000.94;;;24.35;54.36
71567;BME280;59403;47.456;19.120;2023-08-31T12:55:52;100002.81;;;24.61;52.62
71567;BME280;59403;47.456;19.120;2023-08-31T12:58:20;99999.41;;;24.17;51.05